createdAt,value
2022-08-17T00:00:52.190Z,23.84
2022-08-17T00:03:28.207Z,23.83
2022-08-17T00:06:11.962Z,23.77
2022-08-17T00:08:50.766Z,23.73
2022-08-17T00:11:29.114Z,23.72
2022-08-17T00:14:16.558Z,23.71
2022-08-17T00:16:57.030Z,23.70
2022-08-17T00:19:29.294Z,23.68
2022-08-17T00:22:34.465Z,23.65
2022-08-17T00:24:54.460Z,23.59
2022-08-17T00:27:26.072Z,23.55
2022-08-17T00:29:57.613Z,23.50
2022-08-17T00:33:13.763Z,23.39
2022-08-17T00:35:23.729Z,23.29
2022-08-17T00:37:55.450Z,23.25
2022-08-17T00:40:27.145Z,23.22
2022-08-17T00:43:23.820Z,23.19
2022-08-17T00:45:56.715Z,23.19
2022-08-17T00:48:31.751Z,23.18
2022-08-17T00:51:23.174Z,23.18
2022-08-17T00:53:59.838Z,23.15
2022-08-17T00:56:39.402Z,23.14
2022-08-17T00:59:15.981Z,23.09
2022-08-17T01:01:50.014Z,23.05
2022-08-17T01:04:22.551Z,23.01
2022-08-17T01:06:55.090Z,22.97
2022-08-17T01:09:27.259Z,22.92
2022-08-17T01:11:59.111Z,22.91
2022-08-17T01:14:30.797Z,22.87
2022-08-17T01:17:02.548Z,22.83
2022-08-17T01:19:39.085Z,22.79
2022-08-17T01:22:20.045Z,22.76
2022-08-17T01:24:59.818Z,22.72
2022-08-17T01:27:31.737Z,22.67
2022-08-17T01:30:58.119Z,22.62
2022-08-17T01:33:00.707Z,22.59
2022-08-17T01:35:32.381Z,22.56
2022-08-17T01:38:04.591Z,22.53
2022-08-17T01:40:46.467Z,22.49
2022-08-17T01:43:24.091Z,22.40
2022-08-17T01:46:03.364Z,22.33
2022-08-17T01:48:38.341Z,22.28
2022-08-17T01:51:09.997Z,22.25
2022-08-17T01:53:47.297Z,22.23
2022-08-17T01:56:22.530Z,22.19
2022-08-17T01:58:54.517Z,22.19
2022-08-17T02:01:29.540Z,22.18
2022-08-17T02:04:01.853Z,22.17
2022-08-17T02:06:52.973Z,22.14
2022-08-17T02:09:29.556Z,22.14
2022-08-17T02:12:05.767Z,22.10
2022-08-17T02:14:55.591Z,22.12
2022-08-17T02:17:27.231Z,22.09
2022-08-17T02:19:58.847Z,22.10
2022-08-17T02:22:31.054Z,22.12
2022-08-17T02:25:04.190Z,22.11
2022-08-17T02:27:38.738Z,22.09
2022-08-17T02:30:59.891Z,22.07
2022-08-17T02:33:06.491Z,22.01
2022-08-17T02:35:42.887Z,21.96
2022-08-17T02:38:14.994Z,21.92
2022-08-17T02:40:47.559Z,21.89
2022-08-17T02:43:19.155Z,21.83
2022-08-17T02:45:51.440Z,21.83
2022-08-17T02:48:30.985Z,21.81
2022-08-17T02:51:03.513Z,21.76
2022-08-17T02:53:36.263Z,21.70
2022-08-17T02:56:07.987Z,21.70
2022-08-17T02:58:39.573Z,21.70
2022-08-17T03:01:11.207Z,21.69
2022-08-17T03:03:42.887Z,21.64
2022-08-17T03:06:14.521Z,21.58
2022-08-17T03:08:46.168Z,21.50
2022-08-17T03:11:17.766Z,21.45
2022-08-17T03:13:50.060Z,21.39
2022-08-17T03:16:21.917Z,21.33
2022-08-17T03:18:54.779Z,21.34
2022-08-17T03:21:26.444Z,21.33
2022-08-17T03:23:58.195Z,21.34
2022-08-17T03:26:29.977Z,21.34
2022-08-17T03:29:01.609Z,21.34
2022-08-17T03:31:33.204Z,21.32
2022-08-17T03:34:08.770Z,21.27
2022-08-17T03:36:40.403Z,21.16
2022-08-17T03:39:12.075Z,21.09
2022-08-17T03:41:43.839Z,21.03
2022-08-17T03:44:15.458Z,21.04
2022-08-17T03:47:05.508Z,21.02
2022-08-17T03:49:55.700Z,20.99
2022-08-17T03:52:51.714Z,21.01
2022-08-17T03:55:42.218Z,21.00
2022-08-17T03:58:13.915Z,20.94
2022-08-17T04:00:45.705Z,20.87
2022-08-17T04:03:17.965Z,20.82
2022-08-17T04:05:49.576Z,20.81
2022-08-17T04:08:21.209Z,20.80
2022-08-17T04:10:52.827Z,20.71
2022-08-17T04:13:27.806Z,20.64
2022-08-17T04:16:00.000Z,20.63
2022-08-17T04:18:31.676Z,20.62
2022-08-17T04:21:05.346Z,20.65
2022-08-17T04:23:38.163Z,20.68
2022-08-17T04:26:09.817Z,20.77
2022-08-17T04:29:01.518Z,20.80
2022-08-17T04:31:33.978Z,20.83
2022-08-17T04:34:05.621Z,20.82
2022-08-17T04:36:37.367Z,20.85
2022-08-17T04:39:08.987Z,20.91
2022-08-17T04:41:59.071Z,20.97
2022-08-17T04:44:37.846Z,21.05
2022-08-17T04:47:12.981Z,21.07
2022-08-17T04:49:44.938Z,21.17
2022-08-17T04:52:32.284Z,21.31
2022-08-17T04:55:08.580Z,21.50
2022-08-17T04:57:44.584Z,21.63
2022-08-17T05:00:16.949Z,21.81
2022-08-17T05:02:50.666Z,21.99
2022-08-17T05:05:36.434Z,22.19
2022-08-17T05:08:08.041Z,22.34
2022-08-17T05:10:39.638Z,22.52
2022-08-17T05:15:55.104Z,22.90
2022-08-17T05:18:28.951Z,23.01
2022-08-17T05:21:00.682Z,23.00
2022-08-17T05:23:41.747Z,23.08
2022-08-17T05:26:25.573Z,23.10
2022-08-17T05:29:00.382Z,23.31
2022-08-17T05:31:37.065Z,23.40
2022-08-17T05:34:08.747Z,23.60
2022-08-17T05:36:42.908Z,23.89
2022-08-17T05:39:17.318Z,24.16
2022-08-17T05:41:49.241Z,24.30
2022-08-17T05:44:20.906Z,24.44
2022-08-17T05:46:59.153Z,24.62
2022-08-17T05:49:32.839Z,24.85
2022-08-17T05:52:30.776Z,24.66
2022-08-17T05:55:26.981Z,24.42
2022-08-17T05:58:07.577Z,24.20
2022-08-17T06:00:56.043Z,24.11
2022-08-17T06:03:56.971Z,23.93
2022-08-17T06:06:48.592Z,23.94
2022-08-17T06:09:33.939Z,23.88
2022-08-17T06:12:19.767Z,23.86
2022-08-17T06:15:13.881Z,23.86
2022-08-17T06:17:53.564Z,23.82
2022-08-17T06:20:28.858Z,23.91
2022-08-17T06:23:09.997Z,24.18
2022-08-17T06:25:49.727Z,24.46
2022-08-17T06:28:38.296Z,24.78
2022-08-17T06:31:21.366Z,25.13
2022-08-17T06:33:53.325Z,25.50
2022-08-17T06:36:35.011Z,25.90
2022-08-17T06:39:20.209Z,26.38
2022-08-17T06:42:00.861Z,26.81
2022-08-17T06:44:49.812Z,27.10
2022-08-17T06:47:34.018Z,27.34
2022-08-17T06:50:18.965Z,27.59
2022-08-17T06:52:56.606Z,27.76
2022-08-17T06:55:38.158Z,28.00
2022-08-17T06:58:16.336Z,28.38
2022-08-17T07:00:56.621Z,28.62
2022-08-17T07:03:45.333Z,28.80
2022-08-17T07:06:22.766Z,29.16
2022-08-17T07:09:23.602Z,29.50
2022-08-17T07:12:22.170Z,29.86
2022-08-17T07:15:05.786Z,30.34
2022-08-17T07:17:47.484Z,30.83
2022-08-17T07:20:22.554Z,31.15
2022-08-17T07:23:19.750Z,31.48
2022-08-17T07:25:51.392Z,31.69
2022-08-17T07:28:23.782Z,31.48
2022-08-17T07:30:55.425Z,31.33
2022-08-17T07:33:30.242Z,31.18
2022-08-17T07:36:02.298Z,31.37
2022-08-17T07:38:35.589Z,31.57
2022-08-17T07:41:10.658Z,31.48
2022-08-17T07:43:43.934Z,31.55
2022-08-17T07:46:47.789Z,31.65
2022-08-17T07:49:31.720Z,31.81
2022-08-17T07:52:47.636Z,31.96
2022-08-17T07:55:34.806Z,32.50
2022-08-17T07:58:06.450Z,32.86
2022-08-17T08:00:38.232Z,33.08
2022-08-17T08:03:27.300Z,32.97
2022-08-17T08:06:03.005Z,33.07
2022-08-17T08:08:43.614Z,33.18
2022-08-17T08:11:29.557Z,33.18
2022-08-17T08:14:28.321Z,32.96
2022-08-17T08:17:09.353Z,33.09
2022-08-17T08:19:41.126Z,33.35
2022-08-17T08:22:33.610Z,33.25
2022-08-17T08:25:19.839Z,33.07
2022-08-17T08:28:27.317Z,33.23
2022-08-17T08:31:42.513Z,33.57
2022-08-17T08:34:47.346Z,33.79
2022-08-17T08:37:34.746Z,33.83
2022-08-17T08:40:47.166Z,33.62
2022-08-17T08:43:43.662Z,33.32
2022-08-17T08:46:27.243Z,33.53
2022-08-17T08:49:11.917Z,33.86
2022-08-17T08:52:00.291Z,34.05
2022-08-17T08:54:50.276Z,34.18
2022-08-17T08:57:34.275Z,34.54
2022-08-17T09:00:15.623Z,34.92
2022-08-17T09:03:19.185Z,35.17
2022-08-17T09:06:33.527Z,35.54
2022-08-17T09:09:45.594Z,35.84
2022-08-17T09:12:48.661Z,36.05
2022-08-17T09:15:26.656Z,35.19
2022-08-17T09:19:01.184Z,34.37
2022-08-17T09:21:01.010Z,34.70
2022-08-17T09:23:59.859Z,35.07
2022-08-17T09:27:08.954Z,35.44
2022-08-17T09:29:47.974Z,35.69
2022-08-17T09:32:32.193Z,35.66
2022-08-17T09:35:17.652Z,35.81
2022-08-17T09:38:17.227Z,36.26
2022-08-17T09:40:57.145Z,36.49
2022-08-17T09:43:59.854Z,36.29
2022-08-17T09:46:41.226Z,36.23
2022-08-17T09:49:38.267Z,36.05
2022-08-17T09:52:18.613Z,35.63
2022-08-17T09:54:52.406Z,35.79
2022-08-17T09:57:53.694Z,35.96
2022-08-17T10:00:31.981Z,36.08
2022-08-17T10:03:50.870Z,36.04
2022-08-17T10:06:27.172Z,35.90
2022-08-17T10:09:13.834Z,36.03
2022-08-17T10:12:17.135Z,36.08
2022-08-17T10:15:08.070Z,36.08
2022-08-17T10:18:22.456Z,36.05
2022-08-17T10:21:25.146Z,35.97
2022-08-17T10:24:40.647Z,35.35
2022-08-17T10:27:54.475Z,35.08
2022-08-17T10:30:31.533Z,35.14
2022-08-17T10:33:06.947Z,35.37
2022-08-17T10:35:44.897Z,35.77
2022-08-17T10:38:46.779Z,35.67
2022-08-17T10:41:27.412Z,35.37
2022-08-17T10:44:37.387Z,35.01
2022-08-17T10:47:15.429Z,34.75
2022-08-17T10:49:55.940Z,34.68
2022-08-17T10:52:27.550Z,34.86
2022-08-17T10:55:08.941Z,34.99
2022-08-17T10:57:44.785Z,35.28
2022-08-17T11:00:23.011Z,34.76
2022-08-17T11:02:58.744Z,34.56
2022-08-17T11:05:50.368Z,34.16
2022-08-17T11:08:37.646Z,34.02
2022-08-17T11:11:47.555Z,33.85
2022-08-17T11:14:41.278Z,33.62
2022-08-17T11:17:35.246Z,33.43
2022-08-17T11:20:34.402Z,33.19
2022-08-17T11:23:14.915Z,33.10
2022-08-17T11:25:55.411Z,33.23
2022-08-17T11:28:35.846Z,33.38
2022-08-17T11:31:38.456Z,33.18
2022-08-17T11:34:34.966Z,33.46
2022-08-17T11:37:44.159Z,33.88
2022-08-17T11:40:41.341Z,33.95
2022-08-17T11:43:28.037Z,33.85
2022-08-17T11:46:59.743Z,33.78
2022-08-17T11:50:08.685Z,33.69
2022-08-17T11:52:47.453Z,33.79
2022-08-17T11:55:40.718Z,33.53
2022-08-17T11:58:29.823Z,33.44
2022-08-17T12:01:03.070Z,33.19
2022-08-17T12:03:37.737Z,33.02
2022-08-17T12:06:17.918Z,32.83
2022-08-17T12:09:14.419Z,33.04
2022-08-17T12:12:01.542Z,33.50
2022-08-17T12:15:10.239Z,33.93
2022-08-17T12:17:55.205Z,34.03
2022-08-17T12:20:34.846Z,34.11
2022-08-17T12:23:39.494Z,34.34
2022-08-17T12:26:20.980Z,34.54
2022-08-17T12:29:02.438Z,34.76
2022-08-17T12:31:44.209Z,35.13
2022-08-17T12:34:25.603Z,35.34
2022-08-17T12:37:02.962Z,35.34
2022-08-17T12:39:38.640Z,35.17
2022-08-17T12:42:26.446Z,35.03
2022-08-17T12:44:59.398Z,35.01
2022-08-17T12:47:35.090Z,34.96
2022-08-17T12:50:29.282Z,34.42
2022-08-17T12:53:04.864Z,34.07
2022-08-17T12:55:38.811Z,33.86
2022-08-17T12:58:14.403Z,33.79
2022-08-17T13:00:55.370Z,33.71
2022-08-17T13:03:36.335Z,33.76
2022-08-17T13:06:12.492Z,33.94
2022-08-17T13:08:47.993Z,33.89
2022-08-17T13:11:24.575Z,33.75
2022-08-17T13:13:56.645Z,33.48
2022-08-17T13:16:31.699Z,33.27
2022-08-17T13:19:09.749Z,33.13
2022-08-17T13:21:48.085Z,33.05
2022-08-17T13:24:29.454Z,32.99
2022-08-17T13:27:15.387Z,32.93
2022-08-17T13:29:51.612Z,32.94
2022-08-17T13:32:33.418Z,33.00
2022-08-17T13:35:39.924Z,33.03
2022-08-17T13:38:39.490Z,32.98
2022-08-17T13:41:36.152Z,32.71
2022-08-17T13:44:30.587Z,32.60
2022-08-17T13:47:04.371Z,32.60
2022-08-17T13:49:48.648Z,32.65
2022-08-17T13:52:34.543Z,32.61
2022-08-17T13:55:18.823Z,32.57
2022-08-17T13:58:03.906Z,32.46
2022-08-17T14:00:40.331Z,32.50
2022-08-17T14:03:12.107Z,32.43
2022-08-17T14:05:45.922Z,32.55
2022-08-17T14:08:19.000Z,32.73
2022-08-17T14:10:58.645Z,32.85
2022-08-17T14:13:30.211Z,32.87
2022-08-17T14:16:02.026Z,32.86
2022-08-17T14:18:55.430Z,32.87
2022-08-17T14:21:28.272Z,32.86
2022-08-17T14:24:00.272Z,32.91
2022-08-17T14:26:34.681Z,33.01
2022-08-17T14:29:15.000Z,33.13
2022-08-17T14:31:53.367Z,33.17
2022-08-17T14:34:26.375Z,33.28
2022-08-17T14:37:00.986Z,33.29
2022-08-17T14:39:39.517Z,33.38
2022-08-17T14:42:15.511Z,33.51
2022-08-17T14:44:47.575Z,33.44
2022-08-17T14:47:19.278Z,33.43
2022-08-17T14:49:51.139Z,33.41
2022-08-17T14:52:22.727Z,33.30
2022-08-17T14:54:55.111Z,33.22
2022-08-17T14:57:34.279Z,33.18
2022-08-17T15:00:08.086Z,33.15
2022-08-17T15:02:46.027Z,33.12
2022-08-17T15:05:17.878Z,33.08
2022-08-17T15:07:49.745Z,33.03
2022-08-17T15:10:22.044Z,32.99
2022-08-17T15:12:53.906Z,32.98
2022-08-17T15:15:26.708Z,32.93
2022-08-17T15:17:59.948Z,32.88
2022-08-17T15:20:33.326Z,32.89
2022-08-17T15:23:06.942Z,32.91
2022-08-17T15:25:43.851Z,32.90
2022-08-17T15:28:17.202Z,32.80
2022-08-17T15:30:53.239Z,32.69
2022-08-17T15:33:29.480Z,32.56
2022-08-17T15:36:04.700Z,32.48
2022-08-17T15:38:39.583Z,32.40
2022-08-17T15:41:15.244Z,32.41
2022-08-17T15:43:50.197Z,32.36
2022-08-17T15:46:24.393Z,32.34
2022-08-17T15:49:02.751Z,32.39
2022-08-17T15:51:35.589Z,32.41
2022-08-17T15:54:18.952Z,32.43
2022-08-17T15:56:54.919Z,32.35
2022-08-17T15:59:27.065Z,32.30
2022-08-17T16:03:13.662Z,32.24
2022-08-17T16:04:52.398Z,32.16
2022-08-17T16:07:26.846Z,32.14
2022-08-17T16:09:58.702Z,32.06
2022-08-17T16:12:30.369Z,32.01
2022-08-17T16:15:04.151Z,31.98
2022-08-17T16:17:40.192Z,31.89
2022-08-17T16:20:20.048Z,31.90
2022-08-17T16:22:53.221Z,31.96
2022-08-17T16:25:52.103Z,31.93
2022-08-17T16:28:27.506Z,31.90
2022-08-17T16:31:08.128Z,31.90
2022-08-17T16:33:41.273Z,31.92
2022-08-17T16:36:12.872Z,31.86
2022-08-17T16:38:44.850Z,31.74
2022-08-17T16:41:36.782Z,31.65
2022-08-17T16:44:08.409Z,31.60
2022-08-17T16:46:50.754Z,31.61
2022-08-17T16:49:27.577Z,31.56
2022-08-17T16:52:10.848Z,31.50
2022-08-17T16:54:44.432Z,31.48
2022-08-17T16:57:17.448Z,31.44
2022-08-17T16:59:51.428Z,31.42
2022-08-17T17:02:36.263Z,31.39
2022-08-17T17:05:57.842Z,31.32
2022-08-17T17:08:57.387Z,31.26
2022-08-17T17:11:33.656Z,31.25
2022-08-17T17:14:10.282Z,31.23
2022-08-17T17:16:49.767Z,31.20
2022-08-17T17:19:46.426Z,31.12
2022-08-17T17:22:37.519Z,31.08
2022-08-17T17:25:09.190Z,31.03
2022-08-17T17:28:00.693Z,30.97
2022-08-17T17:30:40.931Z,30.91
2022-08-17T17:33:22.466Z,30.85
2022-08-17T17:36:00.331Z,30.81
2022-08-17T17:38:42.452Z,30.75
2022-08-17T17:41:26.512Z,30.73
2022-08-17T17:44:02.916Z,30.72
2022-08-17T17:46:40.211Z,30.70
2022-08-17T17:49:14.281Z,30.66
2022-08-17T17:52:12.333Z,30.59
2022-08-17T17:55:05.936Z,30.48
2022-08-17T17:57:40.440Z,30.43
2022-08-17T18:00:20.683Z,30.39
2022-08-17T18:03:06.862Z,30.34
2022-08-17T18:06:01.173Z,30.27
2022-08-17T18:08:34.684Z,30.23
2022-08-17T18:11:24.688Z,30.19
2022-08-17T18:13:56.591Z,30.14
2022-08-17T18:16:32.177Z,30.08
2022-08-17T18:19:04.177Z,30.01
2022-08-17T18:21:46.358Z,29.95
2022-08-17T18:24:32.834Z,29.88
2022-08-17T18:27:25.935Z,29.82
2022-08-17T18:30:25.130Z,29.71
2022-08-17T18:33:23.143Z,29.65
2022-08-17T18:35:58.845Z,29.57
2022-08-17T18:38:37.898Z,29.52
2022-08-17T18:41:27.113Z,29.45
2022-08-17T18:44:05.370Z,29.38
2022-08-17T18:46:37.769Z,29.30
2022-08-17T18:49:28.917Z,29.23
2022-08-17T18:52:22.966Z,29.17
2022-08-17T18:55:25.250Z,29.09
2022-08-17T18:58:12.905Z,29.03
2022-08-17T19:00:46.671Z,28.97
2022-08-17T19:03:25.024Z,28.89
2022-08-17T19:06:17.483Z,28.80
2022-08-17T19:08:53.260Z,28.72
2022-08-17T19:11:35.623Z,28.63
2022-08-17T19:14:12.014Z,28.56
2022-08-17T19:16:55.683Z,28.48
2022-08-17T19:19:38.445Z,28.41
2022-08-17T19:22:28.856Z,28.35
2022-08-17T19:25:15.203Z,28.29
2022-08-17T19:28:02.921Z,28.23
2022-08-17T19:30:35.898Z,28.19
2022-08-17T19:33:10.315Z,28.15
2022-08-17T19:36:01.967Z,28.09
2022-08-17T19:38:54.514Z,28.06
2022-08-17T19:41:41.030Z,28.03
2022-08-17T19:44:35.425Z,27.96
2022-08-17T19:47:54.782Z,27.89
2022-08-17T19:50:41.323Z,27.83
2022-08-17T19:53:41.693Z,27.78
2022-08-17T19:56:31.769Z,27.73
2022-08-17T19:59:13.312Z,27.68
2022-08-17T20:01:53.476Z,27.61
2022-08-17T20:04:35.654Z,27.48
2022-08-17T20:07:14.339Z,27.35
2022-08-17T20:10:06.962Z,27.33
2022-08-17T20:12:42.336Z,27.32
2022-08-17T20:15:25.027Z,27.29
2022-08-17T20:18:00.184Z,27.26
2022-08-17T20:20:55.814Z,27.21
2022-08-17T20:23:41.788Z,27.15
2022-08-17T20:26:37.018Z,27.09
2022-08-17T20:29:37.601Z,27.06
2022-08-17T20:32:19.073Z,27.00
2022-08-17T20:35:08.141Z,26.94
2022-08-17T20:37:44.364Z,26.86
2022-08-17T20:40:21.451Z,26.79
2022-08-17T20:42:53.635Z,26.75
2022-08-17T20:45:26.202Z,26.66
2022-08-17T20:48:24.001Z,26.61
2022-08-17T20:51:00.870Z,26.62
2022-08-17T20:53:51.873Z,26.58
2022-08-17T20:56:43.077Z,26.54
2022-08-17T20:59:20.561Z,26.51
2022-08-17T21:02:19.507Z,26.48
2022-08-17T21:04:54.421Z,26.44
2022-08-17T21:07:33.120Z,26.39
2022-08-17T21:10:35.571Z,26.35
2022-08-17T21:13:13.991Z,26.29
2022-08-17T21:16:09.098Z,26.24
2022-08-17T21:19:05.757Z,26.22
2022-08-17T21:21:58.556Z,26.16
2022-08-17T21:24:39.821Z,26.12
2022-08-17T21:27:52.892Z,26.07
2022-08-17T21:30:30.057Z,26.03
2022-08-17T21:33:35.056Z,25.98
2022-08-17T21:36:12.420Z,25.92
2022-08-17T21:38:57.388Z,25.83
2022-08-17T21:41:44.281Z,25.80
2022-08-17T21:44:32.208Z,25.77
2022-08-17T21:47:25.949Z,25.71
2022-08-17T21:50:16.166Z,25.67
2022-08-17T21:52:49.629Z,25.56
2022-08-17T21:55:30.415Z,25.54
2022-08-17T21:58:14.603Z,25.54
2022-08-17T22:00:46.706Z,25.52
2022-08-17T22:03:24.636Z,25.50
2022-08-17T22:05:58.969Z,25.47
2022-08-17T22:08:30.618Z,25.45
2022-08-17T22:11:02.528Z,25.43
2022-08-17T22:13:38.558Z,25.37
2022-08-17T22:16:28.301Z,25.34
2022-08-17T22:19:00.922Z,25.32
2022-08-17T22:21:32.564Z,25.31
2022-08-17T22:24:21.519Z,25.26
2022-08-17T22:27:12.921Z,25.25
2022-08-17T22:29:59.631Z,25.22
2022-08-17T22:32:41.649Z,25.21
2022-08-17T22:35:28.447Z,25.18
2022-08-17T22:38:19.499Z,25.13
2022-08-17T22:40:55.771Z,25.08
2022-08-17T22:43:28.671Z,25.07
2022-08-17T22:46:00.662Z,25.02
2022-08-17T22:48:32.550Z,24.99
2022-08-17T22:51:12.689Z,24.96
2022-08-17T22:54:11.230Z,24.95
2022-08-17T22:57:18.690Z,24.90
2022-08-17T22:59:55.023Z,24.89
2022-08-17T23:02:30.739Z,24.86
2022-08-17T23:05:15.707Z,24.84
2022-08-17T23:07:51.339Z,24.80
2022-08-17T23:10:23.033Z,24.79
2022-08-17T23:12:59.793Z,24.78
2022-08-17T23:15:33.775Z,24.78
2022-08-17T23:18:05.973Z,24.75
2022-08-17T23:20:41.129Z,24.71
2022-08-17T23:26:11.608Z,24.68
2022-08-17T23:28:43.901Z,24.67
2022-08-17T23:31:19.583Z,24.63
2022-08-17T23:33:59.588Z,24.60
2022-08-17T23:36:31.641Z,24.60
2022-08-17T23:39:04.741Z,24.62
2022-08-17T23:41:39.961Z,24.63
2022-08-17T23:44:13.382Z,24.59
2022-08-17T23:46:45.076Z,24.59
2022-08-17T23:49:17.015Z,24.55
2022-08-17T23:51:49.216Z,24.57
2022-08-17T23:54:30.006Z,24.59
2022-08-17T23:57:04.407Z,24.58
2022-08-17T23:59:37.249Z,24.59
